Time;durP1;ratioP1;P1;durP2;ratioP2;P2;SDS_P1;SDS_P2;PMS_P1;PMS_P2;Temp;Humidity;BMP_temperature;BMP_pressure;BME280_temperature;BME280_humidity;BME280_pressure;Samples;Min_cycle;Max_cycle;Signal;HPM_P1;HPM_P2
2022/10/24 00:01:52;;;;;;;0.00;0.00;;;13.50;99.90;;;;;;5025536;28;20732;-77
2022/10/24 00:04:19;;;;;;;0.60;0.45;;;13.60;99.90;;;;;;5021707;28;20060;-77
2022/10/24 00:06:46;;;;;;;0.00;0.00;;;13.60;99.90;;;;;;5028391;28;20609;-77
2022/10/24 00:09:12;;;;;;;0.00;0.00;;;13.60;99.90;;;;;;5024330;28;20358;-77
2022/10/24 00:11:41;;;;;;;0.08;0.08;;;13.60;99.90;;;;;;5036059;28;20052;-77
2022/10/24 00:14:07;;;;;;;0.10;0.10;;;13.60;99.90;;;;;;5031173;28;20067;-78
2022/10/24 00:16:35;;;;;;;;;;;13.60;99.90;;;;;;5028048;28;20506;-77
2022/10/24 00:19:01;;;;;;;0.00;0.00;;;13.60;99.90;;;;;;5033071;28;19908;-77
2022/10/24 00:21:28;;;;;;;0.00;0.00;;;13.60;99.90;;;;;;5029878;28;20033;-78
2022/10/24 00:23:54;;;;;;;0.00;0.00;;;13.50;99.90;;;;;;5028212;28;20363;-78
2022/10/24 00:26:22;;;;;;;0.00;0.00;;;13.60;99.90;;;;;;5027685;28;20124;-78
2022/10/24 00:28:48;;;;;;;0.05;0.05;;;13.50;99.90;;;;;;5022969;28;20268;-78
2022/10/24 00:31:16;;;;;;;;;;;13.60;99.90;;;;;;5033121;28;20461;-77
2022/10/24 00:33:45;;;;;;;0.05;0.00;;;13.50;99.90;;;;;;5041728;28;20500;-78
2022/10/24 00:36:18;;;;;;;0.20;0.20;;;13.50;99.90;;;;;;5024044;28;20029;-77
2022/10/24 00:38:48;;;;;;;0.10;0.10;;;13.50;99.90;;;;;;5030312;28;20366;-78
2022/10/24 00:41:23;;;;;;;0.00;0.00;;;13.50;99.90;;;;;;5023063;28;20033;-77
2022/10/24 00:43:49;;;;;;;0.03;0.03;;;13.50;99.90;;;;;;5028716;28;20021;-77
2022/10/24 00:46:24;;;;;;;0.00;0.00;;;13.50;99.90;;;;;;5030883;28;20021;-77
2022/10/24 00:48:53;;;;;;;0.00;0.00;;;13.50;99.90;;;;;;5027055;28;20105;-77
2022/10/24 00:51:32;;;;;;;0.47;0.10;;;13.50;99.90;;;;;;5027707;28;20021;-78
2022/10/24 00:54:13;;;;;;;0.10;0.10;;;13.50;99.90;;;;;;5032573;28;20022;-77
2022/10/24 00:56:42;;;;;;;0.00;0.00;;;13.50;99.90;;;;;;5028139;28;20021;-77
2022/10/24 00:59:13;;;;;;;0.03;0.03;;;13.50;99.90;;;;;;5026080;28;20091;-77
2022/10/24 01:01:46;;;;;;;0.00;0.00;;;13.50;99.90;;;;;;5034101;28;20029;-77
2022/10/24 01:04:20;;;;;;;0.00;0.00;;;13.50;99.90;;;;;;5036689;28;20045;-78
2022/10/24 01:07:09;;;;;;;0.00;0.00;;;13.50;99.90;;;;;;5045152;28;20170;-78
2022/10/24 01:13:08;;;;;;;0.00;0.00;;;13.50;99.90;;;;;;5042659;28;20036;-77
2022/10/24 01:16:00;;;;;;;0.00;0.00;;;13.60;99.90;;;;;;5060529;28;20059;-78
2022/10/24 01:18:58;;;;;;;0.00;0.00;;;13.60;99.90;;;;;;5042825;28;20033;-77
2022/10/24 01:21:32;;;;;;;;;;;13.60;99.90;;;;;;5034605;28;20041;-77
2022/10/24 01:24:13;;;;;;;0.00;0.00;;;13.70;99.90;;;;;;5052380;28;19913;-78
2022/10/24 01:26:40;;;;;;;0.47;0.47;;;13.80;99.90;;;;;;5047655;28;20021;-79
2022/10/24 01:29:17;;;;;;;0.00;0.00;;;13.80;99.90;;;;;;5044786;28;20036;-77
2022/10/24 01:32:12;;;;;;;0.00;0.00;;;13.80;99.90;;;;;;5042792;28;20504;-77
2022/10/24 01:35:29;;;;;;;0.00;0.00;;;13.80;99.90;;;;;;5044146;28;20048;-80
2022/10/24 01:38:19;;;;;;;0.00;0.00;;;13.80;99.90;;;;;;4988701;28;20077;-77
2022/10/24 01:40:53;;;;;;;0.43;0.43;;;13.80;99.90;;;;;;4987148;28;20430;-77
2022/10/24 01:43:35;;;;;;;0.00;0.00;;;13.90;99.90;;;;;;4982461;28;20065;-77
2022/10/24 01:46:26;;;;;;;0.00;0.00;;;13.90;99.90;;;;;;4987731;28;20507;-77
2022/10/24 01:49:12;;;;;;;0.10;0.10;;;13.90;99.90;;;;;;5042279;28;20029;-77
2022/10/24 01:51:46;;;;;;;0.00;0.00;;;13.90;99.90;;;;;;5038927;28;20024;-77
2022/10/24 01:54:15;;;;;;;0.10;0.10;;;13.90;99.90;;;;;;5043304;28;20029;-77
2022/10/24 01:56:42;;;;;;;0.00;0.00;;;14.00;99.90;;;;;;5044299;28;20047;-77
2022/10/24 01:59:28;;;;;;;0.00;0.00;;;14.00;99.90;;;;;;5061518;28;20430;-77
2022/10/24 02:02:15;;;;;;;0.00;0.00;;;14.00;99.90;;;;;;5034014;28;20047;-77
2022/10/24 02:05:13;;;;;;;0.10;0.10;;;14.10;99.90;;;;;;5043180;28;20052;-79
2022/10/24 02:07:41;;;;;;;1.45;0.22;;;14.10;99.90;;;;;;5052356;28;20071;-77
2022/10/24 02:10:30;;;;;;;0.00;0.00;;;14.10;99.90;;;;;;5051215;28;20119;-77
2022/10/24 02:13:13;;;;;;;0.00;0.00;;;14.10;99.90;;;;;;5023955;28;20025;-77
2022/10/24 02:15:48;;;;;;;0.00;0.00;;;14.10;99.90;;;;;;5041148;28;20036;-77
2022/10/24 02:18:15;;;;;;;0.00;0.00;;;14.10;99.90;;;;;;5022114;28;20113;-77
2022/10/24 02:21:05;;;;;;;0.00;0.00;;;14.20;99.90;;;;;;5042955;28;20087;-78
2022/10/24 02:23:51;;;;;;;0.60;0.32;;;14.20;99.90;;;;;;5035319;28;20378;-78
2022/10/24 02:26:37;;;;;;;0.00;0.00;;;14.10;99.90;;;;;;5049595;28;20102;-77
2022/10/24 02:29:10;;;;;;;0.00;0.00;;;14.00;99.90;;;;;;5031926;28;20108;-78
2022/10/24 02:31:43;;;;;;;0.00;0.00;;;14.00;99.90;;;;;;5047055;28;20096;-77
2022/10/24 02:34:11;;;;;;;0.08;0.08;;;13.80;99.90;;;;;;5045093;28;20075;-76
2022/10/24 02:36:42;;;;;;;0.00;0.00;;;13.50;99.90;;;;;;5039526;28;20581;-77
2022/10/24 02:39:11;;;;;;;0.00;0.00;;;13.20;99.90;;;;;;5046516;28;20024;-78
2022/10/24 02:41:44;;;;;;;0.00;0.00;;;13.20;99.90;;;;;;5047736;28;20107;-78
2022/10/24 02:44:14;;;;;;;0.00;0.00;;;13.30;99.90;;;;;;5042717;28;20085;-77
2022/10/24 02:46:51;;;;;;;0.00;0.00;;;13.40;99.90;;;;;;5046901;28;20025;-79
2022/10/24 02:49:17;;;;;;;0.00;0.00;;;13.50;99.90;;;;;;5048213;28;20025;-77
2022/10/24 02:52:03;;;;;;;0.00;0.00;;;13.60;99.90;;;;;;5047573;28;20033;-79
2022/10/24 02:54:30;;;;;;;0.00;0.00;;;13.60;99.90;;;;;;5045957;28;20021;-78
2022/10/24 02:57:02;;;;;;;0.00;0.00;;;13.50;99.90;;;;;;5048844;28;20103;-77
2022/10/24 02:59:29;;;;;;;0.00;0.00;;;13.50;99.90;;;;;;5028253;28;20048;-78
2022/10/24 03:01:56;;;;;;;0.00;0.00;;;13.50;99.90;;;;;;5043311;28;20106;-77
2022/10/24 03:04:35;;;;;;;0.00;0.00;;;13.50;99.90;;;;;;5031614;28;20020;-78
2022/10/24 03:07:01;;;;;;;0.00;0.00;;;13.50;99.90;;;;;;5032272;28;20027;-78
2022/10/24 03:09:33;;;;;;;0.20;0.15;;;13.50;99.90;;;;;;5033256;28;20025;-78
2022/10/24 03:12:03;;;;;;;0.10;0.10;;;13.40;99.90;;;;;;5030721;28;21074;-77
2022/10/24 03:14:30;;;;;;;0.00;0.00;;;13.40;99.90;;;;;;5043415;28;20024;-77
2022/10/24 03:17:08;;;;;;;0.10;0.10;;;13.40;99.90;;;;;;5046801;28;20116;-77
2022/10/24 03:19:44;;;;;;;0.00;0.00;;;13.40;99.90;;;;;;5027379;28;20374;-78
2022/10/24 03:22:15;;;;;;;0.00;0.00;;;13.30;99.90;;;;;;5030196;28;20029;-77
2022/10/24 03:24:44;;;;;;;0.00;0.00;;;13.30;99.90;;;;;;5036614;28;20032;-77
2022/10/24 03:27:17;;;;;;;0.00;0.00;;;13.20;99.90;;;;;;5040998;28;20044;-77
2022/10/24 03:29:49;;;;;;;0.00;0.00;;;13.10;99.90;;;;;;5040527;28;20481;-77
2022/10/24 03:32:24;;;;;;;0.00;0.00;;;13.00;99.90;;;;;;5027539;28;20524;-77
2022/10/24 03:34:51;;;;;;;0.00;0.00;;;12.90;99.90;;;;;;5031875;28;20450;-77
2022/10/24 03:37:18;;;;;;;0.00;0.00;;;12.80;99.90;;;;;;5023948;28;20355;-79
2022/10/24 03:39:48;;;;;;;0.00;0.00;;;12.80;99.90;;;;;;5025384;28;20091;-77
2022/10/24 03:42:13;;;;;;;0.00;0.00;;;12.70;99.90;;;;;;5030199;28;20028;-78
2022/10/24 03:44:40;;;;;;;0.00;0.00;;;12.60;99.90;;;;;;5040529;28;20029;-78
2022/10/24 03:47:07;;;;;;;0.00;0.00;;;12.50;99.90;;;;;;5032846;28;20460;-77
2022/10/24 03:49:32;;;;;;;0.00;0.00;;;12.50;99.90;;;;;;5032093;28;20028;-77
2022/10/24 03:52:01;;;;;;;0.00;0.00;;;12.50;99.90;;;;;;5045001;28;20979;-77
2022/10/24 03:54:34;;;;;;;0.00;0.00;;;12.50;99.90;;;;;;5026676;28;20037;-78
2022/10/24 03:57:08;;;;;;;0.00;0.00;;;12.50;99.90;;;;;;5030914;28;20040;-77
2022/10/24 03:59:35;;;;;;;0.00;0.00;;;12.50;99.90;;;;;;5031540;28;20028;-77
2022/10/24 04:02:05;;;;;;;0.60;0.60;;;12.50;99.90;;;;;;5044944;28;20037;-77
2022/10/24 04:04:32;;;;;;;0.10;0.10;;;12.40;99.90;;;;;;5028309;28;21463;-78
2022/10/24 04:07:00;;;;;;;0.00;0.00;;;12.40;99.90;;;;;;5021527;28;20035;-77
2022/10/24 04:09:31;;;;;;;0.88;0.63;;;12.50;99.90;;;;;;5023035;28;20039;-78
2022/10/24 04:11:59;;;;;;;0.00;0.00;;;12.70;99.90;;;;;;5024246;28;20247;-77
2022/10/24 04:14:26;;;;;;;0.00;0.00;;;12.80;99.90;;;;;;5027005;28;20025;-77
2022/10/24 04:16:53;;;;;;;0.00;0.00;;;12.90;99.90;;;;;;5042972;28;20078;-77
2022/10/24 04:19:19;;;;;;;0.00;0.00;;;13.00;99.90;;;;;;5036532;28;20473;-78
2022/10/24 04:21:47;;;;;;;0.00;0.00;;;13.10;99.90;;;;;;5044467;28;20425;-76
2022/10/24 04:24:22;;;;;;;0.00;0.00;;;13.20;99.90;;;;;;5044692;28;20104;-78
2022/10/24 04:26:51;;;;;;;0.00;0.00;;;13.30;99.90;;;;;;5022555;28;20021;-77
2022/10/24 04:29:18;;;;;;;0.10;0.10;;;13.30;99.90;;;;;;5028029;28;20024;-78
2022/10/24 04:31:50;;;;;;;0.00;0.00;;;13.40;99.90;;;;;;5024903;28;20051;-76
2022/10/24 04:34:16;;;;;;;0.00;0.00;;;13.40;99.90;;;;;;5036469;28;20024;-76
2022/10/24 04:36:42;;;;;;;0.00;0.00;;;13.40;99.90;;;;;;5021578;28;20029;-76
2022/10/24 04:39:08;;;;;;;0.00;0.00;;;13.40;99.90;;;;;;5048826;28;20531;-76
2022/10/24 04:41:35;;;;;;;0.00;0.00;;;13.50;99.90;;;;;;5043992;28;20501;-76
2022/10/24 04:44:03;;;;;;;0.00;0.00;;;13.40;99.90;;;;;;5040906;28;20554;-76
2022/10/24 04:46:29;;;;;;;0.88;0.28;;;13.40;99.90;;;;;;5037855;28;20743;-76
2022/10/24 04:48:57;;;;;;;0.00;0.00;;;13.50;99.90;;;;;;5047121;28;20035;-76
2022/10/24 04:51:24;;;;;;;0.00;0.00;;;13.50;99.90;;;;;;5041717;28;20037;-77
2022/10/24 04:53:51;;;;;;;0.00;0.00;;;13.50;99.90;;;;;;5023006;28;20111;-77
2022/10/24 04:56:20;;;;;;;0.00;0.00;;;13.50;99.90;;;;;;5020420;28;20467;-76
2022/10/24 04:58:46;;;;;;;0.25;0.25;;;13.50;99.90;;;;;;5042772;28;20096;-75
2022/10/24 05:01:11;;;;;;;0.00;0.00;;;13.50;99.90;;;;;;5049623;28;20055;-75
2022/10/24 05:03:37;;;;;;;0.10;0.10;;;13.50;99.90;;;;;;5020787;28;20032;-76
2022/10/24 05:06:03;;;;;;;0.00;0.00;;;13.50;99.90;;;;;;5056647;28;20036;-75
2022/10/24 05:08:28;;;;;;;0.00;0.00;;;13.60;99.90;;;;;;5043959;28;21115;-78
2022/10/24 05:10:54;;;;;;;0.27;0.10;;;13.70;99.90;;;;;;4975710;28;20567;-77
2022/10/24 05:13:19;;;;;;;0.00;0.00;;;13.80;99.90;;;;;;5007293;28;20026;-77
2022/10/24 05:15:45;;;;;;;0.00;0.00;;;13.90;99.90;;;;;;4997528;28;20125;-77
2022/10/24 05:18:11;;;;;;;0.00;0.00;;;13.90;99.90;;;;;;4960397;28;20057;-77
2022/10/24 05:20:37;;;;;;;0.20;0.20;;;13.90;99.90;;;;;;4869273;29;20038;-77
2022/10/24 05:23:02;;;;;;;0.00;0.00;;;13.90;99.90;;;;;;4727139;29;20045;-77
2022/10/24 05:27:11;;;;;;;0.00;0.00;;;13.90;99.90;;;;;;5159696;27;20559;-77
2022/10/24 05:29:38;;;;;;;0.00;0.00;;;14.00;99.90;;;;;;5159997;27;20027;-76
2022/10/24 05:32:04;;;;;;;0.10;0.10;;;14.00;99.90;;;;;;5173741;27;20557;-77
2022/10/24 05:34:29;;;;;;;0.28;0.10;;;14.00;99.90;;;;;;5173058;27;20067;-77
2022/10/24 05:36:55;;;;;;;0.00;0.00;;;14.00;99.90;;;;;;5117328;27;20086;-77
2022/10/24 05:39:21;;;;;;;0.00;0.00;;;14.00;99.90;;;;;;5029453;28;20132;-77
2022/10/24 05:41:47;;;;;;;0.00;0.00;;;14.00;99.90;;;;;;4977306;28;20025;-75
2022/10/24 05:44:13;;;;;;;0.32;0.20;;;14.00;99.90;;;;;;4887971;29;20473;-75
2022/10/24 05:46:39;;;;;;;0.00;0.00;;;14.10;99.90;;;;;;4870016;29;20036;-76
2022/10/24 05:49:05;;;;;;;0.00;0.00;;;14.10;99.90;;;;;;4785089;29;20036;-76
2022/10/24 05:53:28;;;;;;;0.00;0.00;;;14.20;99.90;;;;;;5063301;28;20898;-76
2022/10/24 05:55:54;;;;;;;0.00;0.00;;;14.30;99.90;;;;;;5059671;28;20056;-76
2022/10/24 05:58:21;;;;;;;0.00;0.00;;;14.50;99.90;;;;;;5061188;28;20664;-76
2022/10/24 06:00:48;;;;;;;0.00;0.00;;;14.50;99.90;;;;;;5062555;28;20017;-75
2022/10/24 06:03:14;;;;;;;0.00;0.00;;;14.50;99.90;;;;;;5059930;28;20146;-76
2022/10/24 06:05:40;;;;;;;0.00;0.00;;;14.70;99.90;;;;;;5068392;28;20533;-78
2022/10/24 06:08:11;;;;;;;0.00;0.00;;;14.90;99.90;;;;;;5063333;28;20469;-77
2022/10/24 06:10:40;;;;;;;0.00;0.00;;;15.30;99.90;;;;;;5054599;28;20033;-75
2022/10/24 06:13:07;;;;;;;0.00;0.00;;;15.60;99.90;;;;;;5058862;28;20051;-76
2022/10/24 06:15:34;;;;;;;0.20;0.20;;;15.70;99.90;;;;;;5058176;28;20028;-77
2022/10/24 06:18:01;;;;;;;0.08;0.08;;;15.70;99.90;;;;;;5063855;28;20028;-76
2022/10/24 06:20:37;;;;;;;0.00;0.00;;;15.60;99.90;;;;;;5060837;28;20025;-77
2022/10/24 06:23:10;;;;;;;1.65;0.38;;;15.70;99.90;;;;;;5057700;28;20055;-77
2022/10/24 06:25:52;;;;;;;0.45;0.28;;;15.60;99.90;;;;;;5062247;28;20119;-77
2022/10/24 06:28:18;;;;;;;0.00;0.00;;;15.50;99.90;;;;;;5057044;28;20830;-77
2022/10/24 06:30:47;;;;;;;0.30;0.28;;;15.70;99.90;;;;;;5055461;28;20108;-77
2022/10/24 06:33:17;;;;;;;0.00;0.00;;;15.90;99.90;;;;;;5055141;28;20025;-77
2022/10/24 06:35:58;;;;;;;0.00;0.00;;;16.20;99.90;;;;;;5059468;28;20017;-77
2022/10/24 06:38:34;;;;;;;0.00;0.00;;;16.70;99.90;;;;;;5060037;28;20025;-77
2022/10/24 06:41:06;;;;;;;0.00;0.00;;;16.90;99.90;;;;;;5052143;28;20025;-78
2022/10/24 06:43:31;;;;;;;0.10;0.10;;;17.70;99.90;;;;;;5061951;28;20063;-77
2022/10/24 06:45:57;;;;;;;0.30;0.30;;;18.70;99.90;;;;;;5059983;28;20100;-78
2022/10/24 06:48:27;;;;;;;0.00;0.00;;;19.60;99.90;;;;;;5053794;28;20094;-78
2022/10/24 06:50:54;;;;;;;0.00;0.00;;;20.50;99.90;;;;;;5054877;28;20466;-78
2022/10/24 06:53:20;;;;;;;0.38;0.25;;;20.90;99.90;;;;;;5059967;28;20036;-78
2022/10/24 06:55:47;;;;;;;0.17;0.15;;;21.60;99.90;;;;;;5056954;28;20079;-79
2022/10/24 06:58:14;;;;;;;0.00;0.00;;;22.10;99.90;;;;;;5062297;28;20028;-78
2022/10/24 07:00:39;;;;;;;0.65;0.20;;;22.60;99.90;;;;;;5053940;28;20017;-78
2022/10/24 07:03:13;;;;;;;0.00;0.00;;;23.30;99.90;;;;;;5050180;28;20467;-78
2022/10/24 07:05:39;;;;;;;0.20;0.20;;;23.20;99.50;;;;;;5040973;28;20025;-79
2022/10/24 07:08:07;;;;;;;0.82;0.10;;;23.00;99.20;;;;;;5046574;28;20095;-78
2022/10/24 07:10:33;;;;;;;0.00;0.00;;;23.00;99.00;;;;;;5025721;28;20099;-79
2022/10/24 07:13:04;;;;;;;0.32;0.13;;;22.50;99.30;;;;;;5024012;28;20096;-78
2022/10/24 07:15:41;;;;;;;0.00;0.00;;;21.40;99.90;;;;;;5037795;28;20064;-78
2022/10/24 07:18:15;;;;;;;;;;;20.80;99.90;;;;;;5023079;28;20032;-79
2022/10/24 07:20:42;;;;;;;0.00;0.00;;;20.60;99.90;;;;;;5019454;28;19913;-78
2022/10/24 07:23:08;;;;;;;0.00;0.00;;;20.50;99.90;;;;;;5017048;28;20025;-78
2022/10/24 07:25:38;;;;;;;0.00;0.00;;;20.20;99.90;;;;;;5021065;28;20049;-78
2022/10/24 07:28:07;;;;;;;0.00;0.00;;;20.30;99.90;;;;;;5022767;28;20376;-78
2022/10/24 07:30:34;;;;;;;0.00;0.00;;;20.20;99.90;;;;;;5028326;28;20029;-78
2022/10/24 07:33:00;;;;;;;0.00;0.00;;;19.90;99.90;;;;;;5021817;28;20033;-78
2022/10/24 07:35:41;;;;;;;0.00;0.00;;;19.60;99.90;;;;;;5041904;28;20888;-77
2022/10/24 07:38:07;;;;;;;0.00;0.00;;;19.40;99.90;;;;;;5031637;28;20036;-79
2022/10/24 07:40:34;;;;;;;0.30;0.10;;;19.40;99.90;;;;;;5025267;28;20026;-79
2022/10/24 07:43:00;;;;;;;;;;;19.70;99.90;;;;;;5023923;28;20037;-78
2022/10/24 07:45:31;;;;;;;0.00;0.00;;;19.90;99.90;;;;;;5020933;28;19905;-78
2022/10/24 07:47:58;;;;;;;0.00;0.00;;;20.70;99.90;;;;;;5028113;28;20029;-78
2022/10/24 07:50:26;;;;;;;0.00;0.00;;;21.80;99.90;;;;;;5020365;28;20021;-78
2022/10/24 07:52:52;;;;;;;0.00;0.00;;;22.10;99.90;;;;;;5026792;28;20553;-79
2022/10/24 07:55:21;;;;;;;0.15;0.15;;;22.20;99.90;;;;;;5047949;28;20137;-79
2022/10/24 07:57:50;;;;;;;0.65;0.30;;;22.00;99.90;;;;;;5027880;28;20036;-78
2022/10/24 08:00:16;;;;;;;0.00;0.00;;;21.70;99.90;;;;;;5023341;28;20079;-78
2022/10/24 08:02:46;;;;;;;0.10;0.10;;;22.40;99.90;;;;;;5014691;28;20025;-79
2022/10/24 08:05:19;;;;;;;0.00;0.00;;;23.10;98.70;;;;;;5027102;28;20045;-78
2022/10/24 08:07:49;;;;;;;0.00;0.00;;;23.00;98.70;;;;;;5024621;28;20112;-78
2022/10/24 08:10:25;;;;;;;0.20;0.20;;;23.30;98.30;;;;;;5040082;28;20079;-78
2022/10/24 08:12:51;;;;;;;1.45;0.13;;;23.50;97.70;;;;;;5022951;28;20021;-79
2022/10/24 08:15:17;;;;;;;0.20;0.20;;;23.60;96.80;;;;;;5041902;28;20035;-79
2022/10/24 08:17:43;;;;;;;0.00;0.00;;;23.30;97.60;;;;;;5027932;28;20080;-79
2022/10/24 08:20:15;;;;;;;0.10;0.05;;;23.60;97.40;;;;;;5037491;28;20405;-78
2022/10/24 08:22:49;;;;;;;0.10;0.10;;;24.40;96.10;;;;;;5026750;28;20024;-78
2022/10/24 08:25:25;;;;;;;0.00;0.00;;;24.10;95.80;;;;;;5038899;28;20567;-79
2022/10/24 08:27:50;;;;;;;0.32;0.32;;;23.00;96.90;;;;;;5025920;28;20097;-78
2022/10/24 08:30:23;;;;;;;0.30;0.00;;;23.20;97.00;;;;;;5021285;28;20625;-78
2022/10/24 08:32:50;;;;;;;0.43;0.32;;;24.30;95.70;;;;;;5039038;28;20021;-78
2022/10/24 08:35:20;;;;;;;0.00;0.00;;;24.60;94.40;;;;;;5040993;28;20021;-78
2022/10/24 08:37:50;;;;;;;0.00;0.00;;;25.20;93.10;;;;;;5023864;28;20028;-78
2022/10/24 08:40:19;;;;;;;0.70;0.15;;;25.60;92.10;;;;;;5020907;28;20025;-79
2022/10/24 08:42:47;;;;;;;0.00;0.00;;;27.00;90.40;;;;;;5020409;28;20049;-79
2022/10/24 08:45:42;;;;;;;0.30;0.13;;;27.80;86.00;;;;;;5031115;28;20112;-79
2022/10/24 08:48:12;;;;;;;0.10;0.10;;;27.40;83.70;;;;;;5015206;28;20100;-79
2022/10/24 08:50:44;;;;;;;0.00;0.00;;;26.00;86.60;;;;;;5034227;28;20048;-78
2022/10/24 08:53:24;;;;;;;0.00;0.00;;;24.00;90.90;;;;;;5017311;28;20116;-78
2022/10/24 08:55:53;;;;;;;0.10;0.10;;;22.90;93.10;;;;;;5020024;28;20089;-78
2022/10/24 08:58:28;;;;;;;0.00;0.00;;;21.90;95.60;;;;;;5025348;28;20021;-78
2022/10/24 09:01:01;;;;;;;0.20;0.17;;;21.00;98.00;;;;;;5026578;28;20684;-78
2022/10/24 09:03:38;;;;;;;0.00;0.00;;;20.50;99.60;;;;;;5024017;28;20032;-78
2022/10/24 09:06:17;;;;;;;0.00;0.00;;;20.20;99.90;;;;;;5040442;28;20036;-78
2022/10/24 09:09:19;;;;;;;0.00;0.00;;;20.00;99.90;;;;;;5028028;28;20674;-77
2022/10/24 09:11:49;;;;;;;0.00;0.00;;;19.30;99.90;;;;;;5015413;28;20018;-78
2022/10/24 09:14:21;;;;;;;0.00;0.00;;;19.00;99.90;;;;;;5022495;28;20040;-77
2022/10/24 09:17:08;;;;;;;0.10;0.00;;;18.60;99.90;;;;;;5022817;28;20017;-78
2022/10/24 09:19:57;;;;;;;0.00;0.00;;;18.70;99.90;;;;;;5026432;28;20024;-79
2022/10/24 09:22:27;;;;;;;0.00;0.00;;;18.70;99.90;;;;;;5027235;28;20037;-78
2022/10/24 09:25:02;;;;;;;0.00;0.00;;;18.70;99.90;;;;;;5040239;28;20937;-78
2022/10/24 09:27:31;;;;;;;0.08;0.08;;;18.70;99.90;;;;;;5020593;28;20038;-79
2022/10/24 09:30:03;;;;;;;0.00;0.00;;;18.60;99.90;;;;;;5024227;28;20057;-78
2022/10/24 09:32:32;;;;;;;0.00;0.00;;;18.80;99.90;;;;;;5022772;28;20056;-78
2022/10/24 09:35:15;;;;;;;0.88;0.88;;;18.70;99.90;;;;;;5019352;28;20021;-78
2022/10/24 09:38:18;;;;;;;0.00;0.00;;;18.40;99.90;;;;;;5030572;28;20096;-78
2022/10/24 09:40:50;;;;;;;0.00;0.00;;;18.20;99.90;;;;;;5017890;28;20032;-78
2022/10/24 09:43:40;;;;;;;0.00;0.00;;;18.00;99.90;;;;;;5033702;28;20493;-78
2022/10/24 09:46:18;;;;;;;2.10;0.30;;;18.30;99.90;;;;;;5007429;28;20040;-70
2022/10/24 09:48:52;;;;;;;0.00;0.00;;;18.20;99.90;;;;;;5017449;28;20116;-71
2022/10/24 09:51:26;;;;;;;0.10;0.10;;;18.20;99.90;;;;;;5020752;28;20029;-71
2022/10/24 09:54:06;;;;;;;0.00;0.00;;;18.10;99.90;;;;;;5021734;28;20518;-78
2022/10/24 09:56:41;;;;;;;0.28;0.28;;;18.00;99.90;;;;;;5012969;28;20470;-77
2022/10/24 09:59:51;;;;;;;0.00;0.00;;;18.00;99.90;;;;;;5028316;28;20029;-77
2022/10/24 10:02:33;;;;;;;0.00;0.00;;;18.00;99.90;;;;;;5022723;28;20964;-77
2022/10/24 10:05:02;;;;;;;0.03;0.03;;;17.90;99.90;;;;;;5043885;28;20029;-77
2022/10/24 10:07:37;;;;;;;0.00;0.00;;;18.00;99.90;;;;;;5016842;28;21115;-77
2022/10/24 10:10:27;;;;;;;0.00;0.00;;;18.20;99.90;;;;;;5037267;28;20040;-77
2022/10/24 10:13:21;;;;;;;0.43;0.20;;;18.30;99.90;;;;;;5033646;28;20033;-78
2022/10/24 10:16:06;;;;;;;0.28;0.28;;;18.20;99.90;;;;;;5020888;28;20704;-77
2022/10/24 10:18:39;;;;;;;0.00;0.00;;;18.40;99.90;;;;;;5029549;28;20040;-78
2022/10/24 10:21:17;;;;;;;0.00;0.00;;;18.50;99.90;;;;;;5016773;28;20075;-76
2022/10/24 10:23:50;;;;;;;0.08;0.03;;;18.70;99.90;;;;;;5034127;28;20053;-78
2022/10/24 10:26:28;;;;;;;0.03;0.03;;;18.80;99.90;;;;;;5017722;28;20017;-78
2022/10/24 10:29:02;;;;;;;0.00;0.00;;;18.90;99.90;;;;;;5019965;28;20071;-77
2022/10/24 10:31:36;;;;;;;0.03;0.03;;;19.00;99.90;;;;;;5021950;28;20533;-77
2022/10/24 10:34:14;;;;;;;0.17;0.17;;;19.20;99.90;;;;;;5026644;28;20032;-77
2022/10/24 10:37:17;;;;;;;0.10;0.10;;;19.40;99.90;;;;;;5016573;28;20707;-77
2022/10/24 10:40:06;;;;;;;0.00;0.00;;;20.00;99.90;;;;;;5022972;28;20053;-77
2022/10/24 10:42:52;;;;;;;0.00;0.00;;;20.50;99.90;;;;;;5027845;28;20029;-78
2022/10/24 10:45:54;;;;;;;0.00;0.00;;;20.40;99.90;;;;;;5019306;28;20465;-78
2022/10/24 10:48:32;;;;;;;0.00;0.00;;;20.30;99.90;;;;;;5019968;28;20483;-78
2022/10/24 10:51:23;;;;;;;0.73;0.10;;;19.70;99.90;;;;;;5031819;28;20075;-79
2022/10/24 10:54:24;;;;;;;0.00;0.00;;;19.30;99.90;;;;;;5032641;28;20259;-77
2022/10/24 10:57:01;;;;;;;0.00;0.00;;;19.10;99.90;;;;;;4996949;28;20030;-78
2022/10/24 10:59:46;;;;;;;0.00;0.00;;;19.00;99.90;;;;;;5025907;28;20079;-78
2022/10/24 11:02:37;;;;;;;0.00;0.00;;;18.80;99.90;;;;;;5018282;28;20485;-78
2022/10/24 11:05:43;;;;;;;0.10;0.10;;;18.50;99.90;;;;;;5027563;28;20122;-78
2022/10/24 11:08:24;;;;;;;0.03;0.03;;;18.30;99.90;;;;;;5007296;28;20026;-79
2022/10/24 11:11:02;;;;;;;0.00;0.00;;;18.20;99.90;;;;;;5019218;28;20025;-78
2022/10/24 11:13:42;;;;;;;0.00;0.00;;;18.30;99.90;;;;;;5024046;28;20021;-77
2022/10/24 11:16:16;;;;;;;0.00;0.00;;;18.40;99.90;;;;;;5039084;28;20268;-78
2022/10/24 11:18:47;;;;;;;0.00;0.00;;;18.60;99.90;;;;;;5027567;28;20036;-78
2022/10/24 11:21:14;;;;;;;0.10;0.10;;;18.80;99.90;;;;;;5019357;28;20028;-78
2022/10/24 11:24:14;;;;;;;0.20;0.20;;;19.10;99.90;;;;;;5022833;28;20043;-78
2022/10/24 11:27:11;;;;;;;0.00;0.00;;;19.50;99.90;;;;;;5021157;28;20024;-72
2022/10/24 11:30:03;;;;;;;0.00;0.00;;;19.70;99.90;;;;;;5020397;28;20022;-78
2022/10/24 11:32:35;;;;;;;0.00;0.00;;;19.90;99.90;;;;;;5041405;28;20065;-78
2022/10/24 11:35:27;;;;;;;0.00;0.00;;;20.00;99.90;;;;;;5019849;28;20029;-78
2022/10/24 11:38:16;;;;;;;0.00;0.00;;;19.80;99.90;;;;;;5027217;28;20025;-78
2022/10/24 11:40:44;;;;;;;0.20;0.20;;;19.90;99.90;;;;;;5023226;28;20021;-77
2022/10/24 11:43:36;;;;;;;0.00;0.00;;;19.70;99.90;;;;;;5025598;28;20017;-78
2022/10/24 11:46:15;;;;;;;0.00;0.00;;;19.60;99.90;;;;;;5027150;28;20029;-78
2022/10/24 11:48:53;;;;;;;0.10;0.10;;;19.60;99.90;;;;;;5017970;28;20017;-77
2022/10/24 11:51:33;;;;;;;0.00;0.00;;;19.60;99.90;;;;;;5021387;28;20084;-79
2022/10/24 11:54:08;;;;;;;0.10;0.10;;;19.60;99.90;;;;;;5031098;28;20112;-78
2022/10/24 11:57:00;;;;;;;0.00;0.00;;;19.90;99.90;;;;;;5027333;28;20597;-78
2022/10/24 11:59:26;;;;;;;0.00;0.00;;;19.90;99.90;;;;;;5022081;28;20033;-78
2022/10/24 12:01:54;;;;;;;0.00;0.00;;;19.60;99.90;;;;;;5023084;28;20052;-79
2022/10/24 12:05:03;;;;;;;0.10;0.00;;;19.70;99.90;;;;;;5015641;28;20021;-78
2022/10/24 12:08:12;;;;;;;0.00;0.00;;;19.80;99.90;;;;;;5026754;28;20029;-78
2022/10/24 12:11:12;;;;;;;0.00;0.00;;;20.00;99.90;;;;;;5020118;28;20458;-72
2022/10/24 12:14:11;;;;;;;0.00;0.00;;;20.20;99.90;;;;;;5021711;28;20034;-79
2022/10/24 12:17:09;;;;;;;0.00;0.00;;;20.30;99.90;;;;;;5045555;28;20094;-81
2022/10/24 12:19:39;;;;;;;0.05;0.05;;;20.40;99.90;;;;;;5035346;28;20017;-81
2022/10/24 12:22:22;;;;;;;0.25;0.20;;;19.70;99.90;;;;;;5029659;28;20037;-80
2022/10/24 12:25:21;;;;;;;0.00;0.00;;;19.60;99.90;;;;;;5029866;28;20026;-81
2022/10/24 12:27:52;;;;;;;0.00;0.00;;;19.70;99.90;;;;;;5051052;28;20027;-79
2022/10/24 12:30:22;;;;;;;0.10;0.10;;;20.00;99.90;;;;;;5026206;28;20108;-78
2022/10/24 12:33:28;;;;;;;0.00;0.00;;;20.20;99.90;;;;;;5020928;28;20055;-78
2022/10/24 12:36:00;;;;;;;0.43;0.43;;;20.20;99.90;;;;;;5018187;28;20493;-78
2022/10/24 12:38:31;;;;;;;0.10;0.10;;;19.80;99.90;;;;;;5021411;28;20026;-78
2022/10/24 12:41:05;;;;;;;0.00;0.00;;;19.90;99.90;;;;;;5014715;28;20022;-79
2022/10/24 12:43:42;;;;;;;0.00;0.00;;;19.90;99.90;;;;;;5023485;28;20039;-79
2022/10/24 12:46:15;;;;;;;0.08;0.08;;;19.70;99.90;;;;;;5020739;28;20029;-79
2022/10/24 12:49:06;;;;;;;0.00;0.00;;;19.70;99.90;;;;;;5017351;28;20033;-79
2022/10/24 12:51:39;;;;;;;0.05;0.05;;;19.80;99.90;;;;;;5029297;28;20025;-79
2022/10/24 12:54:11;;;;;;;0.00;0.00;;;19.90;99.90;;;;;;5025309;28;20029;-79
2022/10/24 12:56:49;;;;;;;0.00;0.00;;;19.80;99.90;;;;;;5024565;28;20021;-80
2022/10/24 12:59:28;;;;;;;0.00;0.00;;;19.90;99.90;;;;;;5017335;28;20486;-79
2022/10/24 13:02:20;;;;;;;0.00;0.00;;;19.90;99.90;;;;;;5034793;28;20680;-79
2022/10/24 13:05:05;;;;;;;0.00;0.00;;;19.90;99.90;;;;;;5021011;28;20021;-78
2022/10/24 13:07:55;;;;;;;0.00;0.00;;;20.00;99.90;;;;;;5026258;28;20103;-78
2022/10/24 13:10:55;;;;;;;0.65;0.10;;;20.10;99.90;;;;;;5024572;28;20022;-80
2022/10/24 13:13:57;;;;;;;0.00;0.00;;;19.80;99.90;;;;;;5026030;28;20026;-78
2022/10/24 13:16:50;;;;;;;0.10;0.10;;;19.90;99.90;;;;;;5022608;28;20025;-79
2022/10/24 13:19:24;;;;;;;0.00;0.00;;;19.70;99.90;;;;;;5020460;28;20029;-79
2022/10/24 13:21:59;;;;;;;0.00;0.00;;;19.70;99.90;;;;;;5042304;28;20029;-79
2022/10/24 13:24:38;;;;;;;0.00;0.00;;;19.60;99.90;;;;;;5019258;28;20022;-78
2022/10/24 13:27:11;;;;;;;0.00;0.00;;;19.50;99.90;;;;;;5036707;28;20053;-78
2022/10/24 13:29:39;;;;;;;0.15;0.15;;;19.60;99.90;;;;;;5045084;28;20089;-82
2022/10/24 13:32:22;;;;;;;0.00;0.00;;;19.60;99.90;;;;;;5051637;28;20045;-82
2022/10/24 13:34:54;;;;;;;0.03;0.03;;;19.40;99.90;;;;;;5036321;28;20083;-79